Time;durP1;ratioP1;P1;durP2;ratioP2;P2;SDS_P1;SDS_P2;PMS_P1;PMS_P2;Temp;Humidity;BMP_temperature;BMP_pressure;BME280_temperature;BME280_humidity;BME280_pressure;Samples;Min_cycle;Max_cycle;Signal;HPM_P1;HPM_P2
2022/10/05 00:01:47;;;;;;;12.95;6.45;;;7.30;99.90;;;;;;5050643;28;20060;-65
2022/10/05 00:04:15;;;;;;;13.57;6.57;;;7.20;99.90;;;;;;5051367;28;20055;-65
2022/10/05 00:06:43;;;;;;;12.77;6.47;;;7.10;99.90;;;;;;5051304;28;20117;-70
2022/10/05 00:09:15;;;;;;;14.23;6.93;;;7.10;99.90;;;;;;5050968;28;20056;-66
2022/10/05 00:11:42;;;;;;;15.68;6.63;;;7.20;99.90;;;;;;5050925;28;20370;-70
2022/10/05 00:14:29;;;;;;;13.77;6.97;;;7.20;99.90;;;;;;5050880;28;20117;-66
2022/10/05 00:16:55;;;;;;;13.93;6.25;;;7.20;99.90;;;;;;5050564;28;20028;-65
2022/10/05 00:19:36;;;;;;;16.23;6.72;;;7.20;99.90;;;;;;5050742;28;20107;-65
2022/10/05 00:22:08;;;;;;;11.50;6.18;;;7.20;99.90;;;;;;5050457;28;20090;-66
2022/10/05 00:24:34;;;;;;;12.98;6.72;;;7.20;99.90;;;;;;5050783;28;20095;-64
2022/10/05 00:27:23;;;;;;;17.48;6.38;;;7.20;99.90;;;;;;5050400;28;20037;-64
2022/10/05 00:29:50;;;;;;;10.63;6.13;;;7.20;99.90;;;;;;5050142;28;20443;-65
2022/10/05 00:32:16;;;;;;;15.50;7.22;;;7.20;99.90;;;;;;5050757;28;20044;-65
2022/10/05 00:34:43;;;;;;;12.38;5.75;;;7.10;99.90;;;;;;5050808;28;20033;-69
2022/10/05 00:37:08;;;;;;;11.52;5.47;;;7.00;99.90;;;;;;5050783;28;20454;-65
2022/10/05 00:39:37;;;;;;;11.63;5.88;;;7.00;99.90;;;;;;5050797;28;20024;-65
2022/10/05 00:42:10;;;;;;;11.57;5.90;;;7.00;99.90;;;;;;5049917;28;20033;-65
2022/10/05 00:44:55;;;;;;;16.33;6.03;;;7.00;99.90;;;;;;5029526;28;20529;-65
2022/10/05 00:47:57;;;;;;;9.65;5.60;;;6.90;99.90;;;;;;5029670;28;20037;-66
2022/10/05 00:50:57;;;;;;;10.65;5.53;;;6.80;99.90;;;;;;5030845;28;20138;-65
2022/10/05 00:53:41;;;;;;;8.88;5.22;;;6.80;99.90;;;;;;5026271;28;20098;-65
2022/10/05 00:56:36;;;;;;;12.27;5.63;;;6.70;99.90;;;;;;5029969;28;20409;-65
2022/10/05 00:59:14;;;;;;;11.02;4.90;;;6.80;99.90;;;;;;5044387;28;20029;-66
2022/10/05 01:01:58;;;;;;;192.35;8.45;;;6.80;99.90;;;;;;5049281;28;20037;-67
2022/10/05 01:04:36;;;;;;;9.13;5.32;;;6.80;99.90;;;;;;5050705;28;20112;-66
2022/10/05 01:07:07;;;;;;;9.23;5.25;;;6.70;99.90;;;;;;5049464;28;20540;-65
2022/10/05 01:10:29;;;;;;;14.75;5.18;;;6.60;99.90;;;;;;5050419;28;20083;-64
2022/10/05 01:13:28;;;;;;;10.55;5.57;;;6.60;99.90;;;;;;5018313;28;20041;-63
2022/10/05 01:16:14;;;;;;;26.70;5.10;;;6.50;99.90;;;;;;5006989;28;20037;-67
2022/10/05 01:18:47;;;;;;;9.00;4.82;;;6.50;99.90;;;;;;5007612;28;20042;-64
2022/10/05 01:21:15;;;;;;;8.32;4.95;;;6.40;99.90;;;;;;5006796;28;20076;-65
2022/10/05 01:24:02;;;;;;;9.70;5.45;;;6.30;99.90;;;;;;5007659;28;20041;-65
2022/10/05 01:26:42;;;;;;;10.85;5.18;;;6.20;99.90;;;;;;5007608;28;20116;-65
2022/10/05 01:29:22;;;;;;;12.93;5.95;;;6.20;99.90;;;;;;4990313;28;20113;-66
2022/10/05 01:31:57;;;;;;;10.02;5.10;;;6.20;99.90;;;;;;5007093;28;20041;-68
2022/10/05 01:34:37;;;;;;;7.45;4.47;;;6.20;99.90;;;;;;5007585;28;20127;-65
2022/10/05 01:37:05;;;;;;;7.88;4.60;;;6.20;99.90;;;;;;5006553;28;20438;-65
2022/10/05 01:39:43;;;;;;;14.65;5.03;;;6.20;99.90;;;;;;4991114;28;20030;-65
2022/10/05 01:42:18;;;;;;;9.20;5.13;;;6.20;99.90;;;;;;5006541;28;20030;-66
2022/10/05 01:45:09;;;;;;;10.43;4.97;;;6.10;99.90;;;;;;5028422;28;20388;-65
2022/10/05 01:47:44;;;;;;;12.38;5.55;;;6.10;99.90;;;;;;5029801;28;20113;-65
2022/10/05 01:50:32;;;;;;;11.52;5.20;;;6.10;99.90;;;;;;5027493;28;20824;-64
2022/10/05 01:53:32;;;;;;;9.35;4.72;;;6.00;99.90;;;;;;5028741;28;20087;-66
2022/10/05 01:56:28;;;;;;;10.52;5.35;;;6.10;99.90;;;;;;5019882;28;20548;-65
2022/10/05 01:59:21;;;;;;;13.35;5.30;;;6.10;99.90;;;;;;5048754;28;20072;-65
2022/10/05 02:01:57;;;;;;;15.32;5.60;;;6.00;99.90;;;;;;5049544;28;20063;-66
2022/10/05 02:05:01;;;;;;;12.35;5.45;;;6.00;99.90;;;;;;5048110;28;20039;-65
2022/10/05 02:07:44;;;;;;;10.77;5.55;;;6.00;99.90;;;;;;5036685;28;20037;-64
2022/10/05 02:10:25;;;;;;;11.68;5.70;;;6.00;99.90;;;;;;5048261;28;20032;-65
2022/10/05 02:12:57;;;;;;;14.48;5.88;;;6.00;99.90;;;;;;5048867;28;20029;-69
2022/10/05 02:15:34;;;;;;;10.25;5.30;;;6.00;99.90;;;;;;5049059;28;20056;-65
2022/10/05 02:18:08;;;;;;;11.57;5.80;;;6.10;99.90;;;;;;5028642;28;20253;-64
2022/10/05 02:20:38;;;;;;;12.95;5.45;;;6.10;99.90;;;;;;5029012;28;20041;-66
2022/10/05 02:23:09;;;;;;;8.27;4.95;;;6.00;99.90;;;;;;5028387;28;20034;-65
2022/10/05 02:25:39;;;;;;;;;;;6.00;99.90;;;;;;5029781;28;20030;-65
2022/10/05 02:28:08;;;;;;;9.63;4.68;;;5.90;99.90;;;;;;5028532;28;19916;-65
2022/10/05 02:30:42;;;;;;;9.80;5.30;;;5.90;99.90;;;;;;5029290;28;20532;-66
2022/10/05 02:33:16;;;;;;;11.25;5.75;;;5.90;99.90;;;;;;5031027;28;20056;-65
2022/10/05 02:35:42;;;;;;;9.35;5.28;;;5.80;99.90;;;;;;5033423;28;20033;-66
2022/10/05 02:38:13;;;;;;;9.95;5.95;;;5.90;99.90;;;;;;5032553;28;20026;-65
2022/10/05 02:40:57;;;;;;;;;;;6.00;99.90;;;;;;5033691;28;20036;-63
2022/10/05 02:43:23;;;;;;;11.00;5.32;;;6.00;99.90;;;;;;5033099;28;19909;-65
2022/10/05 02:45:54;;;;;;;15.15;4.90;;;6.00;99.90;;;;;;5031385;28;20036;-65
2022/10/05 02:48:34;;;;;;;21.33;5.57;;;6.00;99.90;;;;;;5033130;28;20084;-65
2022/10/05 02:51:15;;;;;;;9.10;5.10;;;5.90;99.90;;;;;;5032493;28;20033;-64
2022/10/05 02:54:07;;;;;;;10.25;5.43;;;5.70;99.90;;;;;;5033037;28;20091;-65
2022/10/05 02:56:44;;;;;;;15.15;5.40;;;5.70;99.90;;;;;;5033376;28;20044;-65
2022/10/05 02:59:20;;;;;;;11.77;5.10;;;5.60;99.90;;;;;;5032106;28;20465;-65
2022/10/05 03:02:11;;;;;;;10.93;5.45;;;5.50;99.90;;;;;;5032940;28;20034;-65
2022/10/05 03:05:11;;;;;;;11.13;5.55;;;5.50;99.90;;;;;;5032877;28;20060;-65
2022/10/05 03:08:03;;;;;;;8.30;3.78;;;5.50;99.90;;;;;;5031506;28;20048;-66
2022/10/05 03:10:55;;;;;;;10.30;5.00;;;5.60;99.90;;;;;;5031534;28;20501;-65
2022/10/05 03:13:44;;;;;;;11.32;5.30;;;5.70;99.90;;;;;;5032967;28;20034;-64
2022/10/05 03:16:48;;;;;;;9.68;5.00;;;5.70;99.90;;;;;;5030436;28;20037;-64
2022/10/05 03:19:28;;;;;;;11.73;4.63;;;5.70;99.90;;;;;;5008791;28;20819;-63
2022/10/05 03:22:02;;;;;;;;;;;5.70;99.90;;;;;;5046364;28;20398;-70
2022/10/05 03:25:12;;;;;;;10.90;4.75;;;5.70;99.90;;;;;;5052330;28;19941;-66
2022/10/05 03:28:01;;;;;;;14.85;4.47;;;5.70;99.90;;;;;;5052279;28;20139;-65
2022/10/05 03:30:45;;;;;;;10.65;4.95;;;5.70;99.90;;;;;;5052364;28;20657;-66
2022/10/05 03:33:29;;;;;;;8.68;4.53;;;5.60;99.90;;;;;;5051473;28;20063;-65
2022/10/05 03:36:04;;;;;;;8.05;4.35;;;5.60;99.90;;;;;;5051915;28;20037;-67
2022/10/05 03:38:36;;;;;;;11.85;5.32;;;5.60;99.90;;;;;;5051839;28;20025;-65
2022/10/05 03:41:14;;;;;;;11.40;4.90;;;5.60;99.90;;;;;;5051059;28;20075;-66
2022/10/05 03:43:58;;;;;;;10.48;5.25;;;5.50;99.90;;;;;;5051432;28;20029;-64
2022/10/05 03:47:03;;;;;;;9.10;4.80;;;5.50;99.90;;;;;;5051874;28;20029;-66
2022/10/05 03:49:46;;;;;;;10.18;5.38;;;5.50;99.90;;;;;;5050856;28;20076;-65
2022/10/05 03:52:38;;;;;;;9.70;5.00;;;5.50;99.90;;;;;;5049789;28;20663;-64
2022/10/05 03:55:16;;;;;;;11.35;5.32;;;5.60;99.90;;;;;;5050752;28;20124;-64
2022/10/05 03:57:44;;;;;;;8.07;4.97;;;5.50;99.90;;;;;;5051838;28;20056;-64
2022/10/05 04:00:25;;;;;;;12.82;5.32;;;5.50;99.90;;;;;;5050931;28;20033;-64
2022/10/05 04:03:01;;;;;;;14.07;5.05;;;5.50;99.90;;;;;;5051737;28;20111;-65
2022/10/05 04:05:32;;;;;;;8.60;4.70;;;5.40;99.90;;;;;;5051631;28;20033;-64
2022/10/05 04:08:06;;;;;;;12.32;4.63;;;5.40;99.90;;;;;;5051364;28;20032;-69
2022/10/05 04:10:43;;;;;;;10.45;5.32;;;5.50;99.90;;;;;;5051577;28;20029;-65
2022/10/05 04:13:20;;;;;;;12.32;5.25;;;5.50;99.90;;;;;;5050365;28;20071;-65
2022/10/05 04:16:12;;;;;;;8.38;4.65;;;5.40;99.90;;;;;;5051509;28;20108;-65
2022/10/05 04:18:49;;;;;;;8.52;4.55;;;5.40;99.90;;;;;;5051509;28;20036;-64
2022/10/05 04:21:37;;;;;;;9.32;5.03;;;5.30;99.90;;;;;;5050331;28;20053;-64
2022/10/05 04:24:13;;;;;;;8.30;4.45;;;5.30;99.90;;;;;;5050461;28;20045;-65
2022/10/05 04:26:55;;;;;;;9.85;4.53;;;5.30;99.90;;;;;;5050923;28;20363;-64
2022/10/05 04:29:37;;;;;;;11.73;4.65;;;5.30;99.90;;;;;;5050772;28;20044;-65
2022/10/05 04:32:30;;;;;;;9.93;4.50;;;5.30;99.90;;;;;;5050365;28;20025;-65
2022/10/05 04:35:09;;;;;;;8.55;4.70;;;5.20;99.90;;;;;;5051024;28;20032;-66
2022/10/05 04:38:02;;;;;;;10.07;4.85;;;5.20;99.90;;;;;;5050726;28;20584;-65
2022/10/05 04:40:56;;;;;;;9.23;4.85;;;5.20;99.90;;;;;;5050311;28;20025;-64
2022/10/05 04:44:00;;;;;;;12.30;4.82;;;5.20;99.90;;;;;;5050323;28;20029;-66
2022/10/05 04:46:37;;;;;;;9.30;5.05;;;5.20;99.90;;;;;;5050780;28;20518;-66
2022/10/05 04:49:40;;;;;;;15.00;6.35;;;5.20;99.90;;;;;;5050010;28;20040;-64
2022/10/05 04:52:15;;;;;;;12.70;6.72;;;5.20;99.90;;;;;;5050192;28;20039;-65
2022/10/05 04:54:49;;;;;;;10.45;5.03;;;5.30;99.90;;;;;;5049435;28;20492;-65
2022/10/05 04:57:30;;;;;;;9.85;4.60;;;5.20;99.90;;;;;;5049945;28;20071;-64
2022/10/05 05:00:25;;;;;;;7.97;4.25;;;5.10;99.90;;;;;;5050322;28;20481;-65
2022/10/05 05:03:06;;;;;;;12.30;4.97;;;5.00;99.90;;;;;;5050529;28;20048;-66
2022/10/05 05:06:04;;;;;;;12.27;5.60;;;5.00;99.90;;;;;;5050225;28;20033;-65
2022/10/05 05:08:49;;;;;;;12.02;4.95;;;5.00;99.90;;;;;;5041407;28;20059;-65
2022/10/05 05:11:25;;;;;;;15.45;5.50;;;5.10;99.90;;;;;;5049079;28;20202;-64
2022/10/05 05:14:15;;;;;;;9.68;4.80;;;5.00;99.90;;;;;;5050006;28;20033;-64
2022/10/05 05:16:43;;;;;;;8.63;4.72;;;5.00;99.90;;;;;;5049794;28;20065;-65
2022/10/05 05:19:40;;;;;;;12.75;5.20;;;5.00;99.90;;;;;;5048629;28;20381;-65
2022/10/05 05:22:06;;;;;;;8.00;4.30;;;5.00;99.90;;;;;;5049397;28;20398;-66
2022/10/05 05:25:03;;;;;;;9.43;4.72;;;5.00;99.90;;;;;;5050138;28;20084;-66
2022/10/05 05:28:19;;;;;;;9.73;4.68;;;4.90;99.90;;;;;;5050070;28;20108;-64
2022/10/05 05:31:32;;;;;;;12.35;5.05;;;4.90;99.90;;;;;;5031303;28;20116;-64
2022/10/05 05:34:11;;;;;;;11.75;5.63;;;4.90;99.90;;;;;;5046651;28;20067;-66
2022/10/05 05:37:06;;;;;;;14.25;5.25;;;4.90;99.90;;;;;;5049893;28;20662;-65
2022/10/05 05:39:45;;;;;;;15.38;6.38;;;4.90;99.90;;;;;;5029546;28;20052;-65
2022/10/05 05:42:21;;;;;;;16.63;7.65;;;4.90;99.90;;;;;;5049090;28;20090;-65
2022/10/05 05:44:59;;;;;;;11.55;6.20;;;5.00;99.90;;;;;;5049313;28;20381;-64
2022/10/05 05:47:37;;;;;;;13.75;6.20;;;5.00;99.90;;;;;;5048981;28;20068;-66
2022/10/05 05:50:31;;;;;;;9.82;5.07;;;5.10;99.90;;;;;;5049229;28;20067;-70
2022/10/05 05:53:11;;;;;;;11.00;5.20;;;5.20;99.90;;;;;;5049690;28;20029;-65
2022/10/05 05:55:58;;;;;;;10.57;5.13;;;5.30;99.90;;;;;;5049600;28;20037;-66
2022/10/05 05:58:52;;;;;;;12.38;5.20;;;5.40;99.90;;;;;;5048820;28;20021;-64
2022/10/05 06:01:23;;;;;;;14.40;6.13;;;5.50;99.90;;;;;;5038991;28;20094;-65
2022/10/05 06:04:00;;;;;;;14.20;5.82;;;5.50;99.90;;;;;;5049321;28;20036;-64
2022/10/05 06:06:35;;;;;;;10.02;4.38;;;5.50;99.90;;;;;;5048342;28;20033;-66
2022/10/05 06:09:15;;;;;;;15.45;5.53;;;5.40;99.90;;;;;;5049088;28;20482;-64
2022/10/05 06:11:55;;;;;;;18.33;8.30;;;5.40;99.90;;;;;;5049127;28;20028;-64
2022/10/05 06:14:33;;;;;;;16.48;7.72;;;5.40;99.90;;;;;;5048667;28;20037;-65
2022/10/05 06:17:10;;;;;;;15.23;7.03;;;5.40;99.90;;;;;;5049306;28;20056;-65
2022/10/05 06:19:37;;;;;;;16.58;7.45;;;5.40;99.90;;;;;;5047544;28;20448;-66
2022/10/05 06:22:28;;;;;;;14.98;6.40;;;5.40;99.90;;;;;;5049158;28;20049;-69
2022/10/05 06:25:12;;;;;;;13.07;6.55;;;5.50;99.90;;;;;;5047890;28;20116;-66
2022/10/05 06:28:13;;;;;;;12.77;6.40;;;5.60;99.90;;;;;;5049027;28;20033;-64
2022/10/05 06:30:56;;;;;;;14.82;6.03;;;5.70;99.90;;;;;;5049179;28;20033;-64
2022/10/05 06:33:44;;;;;;;10.60;5.68;;;5.80;99.90;;;;;;5048231;28;20036;-65
2022/10/05 06:37:04;;;;;;;9.40;5.05;;;5.70;99.90;;;;;;5048332;28;20358;-64
2022/10/05 06:39:45;;;;;;;11.73;6.25;;;5.70;99.90;;;;;;5025935;28;20030;-64
2022/10/05 06:42:13;;;;;;;;;;;5.80;99.90;;;;;;5046276;28;20049;-66
2022/10/05 06:44:45;;;;;;;9.68;4.70;;;5.90;99.90;;;;;;5048578;28;20315;-64
2022/10/05 06:47:41;;;;;;;12.15;5.50;;;6.00;99.90;;;;;;5048321;28;20087;-64
2022/10/05 06:50:38;;;;;;;11.48;5.30;;;6.00;99.90;;;;;;5048689;28;20032;-70
2022/10/05 06:53:07;;;;;;;13.52;4.97;;;6.10;99.90;;;;;;5044584;28;20041;-67
2022/10/05 06:55:52;;;;;;;8.65;4.45;;;6.10;99.90;;;;;;5048748;28;20040;-65
2022/10/05 06:58:37;;;;;;;8.57;4.45;;;6.10;99.90;;;;;;5047988;28;20025;-65
2022/10/05 07:01:16;;;;;;;9.50;3.83;;;6.20;99.90;;;;;;5048657;28;20036;-66
2022/10/05 07:04:19;;;;;;;9.00;4.30;;;6.40;99.90;;;;;;5048956;28;20544;-65
2022/10/05 07:06:56;;;;;;;8.77;4.57;;;6.60;99.90;;;;;;5048767;28;20033;-64
2022/10/05 07:09:34;;;;;;;8.70;4.88;;;6.80;99.90;;;;;;5048077;28;20065;-65
2022/10/05 07:12:32;;;;;;;12.20;5.45;;;7.00;99.90;;;;;;5047499;28;20025;-64
2022/10/05 07:15:35;;;;;;;13.18;6.22;;;7.20;99.90;;;;;;5048836;28;20108;-66
2022/10/05 07:18:34;;;;;;;12.43;5.88;;;7.40;99.90;;;;;;5048999;28;20389;-65
2022/10/05 07:21:08;;;;;;;13.52;5.93;;;7.50;99.90;;;;;;5051965;28;20057;-64
2022/10/05 07:23:36;;;;;;;13.10;6.43;;;7.60;99.90;;;;;;5052163;28;20033;-63
2022/10/05 07:26:13;;;;;;;14.23;6.68;;;7.60;99.90;;;;;;5052029;28;20115;-65
2022/10/05 07:28:52;;;;;;;14.73;6.60;;;7.80;99.90;;;;;;5052344;28;20067;-65
2022/10/05 07:31:28;;;;;;;12.27;6.57;;;7.90;99.90;;;;;;5050949;28;20075;-65
2022/10/05 07:34:17;;;;;;;14.18;6.53;;;8.10;99.90;;;;;;5051730;28;20446;-64
2022/10/05 07:40:09;;;;;;;11.60;6.32;;;8.30;99.90;;;;;;5051064;28;20043;-65
2022/10/05 07:42:59;;;;;;;17.65;6.32;;;8.50;99.90;;;;;;5019875;28;20043;-64
2022/10/05 07:45:34;;;;;;;15.60;7.35;;;8.50;99.90;;;;;;5031363;28;20032;-65
2022/10/05 07:48:17;;;;;;;11.45;6.03;;;8.60;99.90;;;;;;5031970;28;20378;-64
2022/10/05 07:51:08;;;;;;;12.80;6.70;;;8.70;99.90;;;;;;5031977;28;20041;-64
2022/10/05 07:53:40;;;;;;;12.45;6.55;;;8.80;99.90;;;;;;5031231;28;20536;-66
2022/10/05 07:56:14;;;;;;;12.90;6.90;;;9.00;99.90;;;;;;5040122;28;20037;-64
2022/10/05 07:58:45;;;;;;;13.75;7.07;;;9.20;99.90;;;;;;5051863;28;20032;-64
2022/10/05 08:01:22;;;;;;;13.52;7.20;;;9.40;99.90;;;;;;5051588;28;20040;-70
2022/10/05 08:04:15;;;;;;;12.70;6.90;;;9.60;99.90;;;;;;5051956;28;20036;-65
2022/10/05 08:06:55;;;;;;;23.52;8.02;;;9.80;99.90;;;;;;5051528;28;20064;-63
2022/10/05 08:09:58;;;;;;;16.10;7.93;;;10.00;99.90;;;;;;5050522;28;20455;-65
2022/10/05 08:12:38;;;;;;;16.45;7.88;;;10.30;99.90;;;;;;5050240;28;20469;-64
2022/10/05 08:15:09;;;;;;;12.73;7.32;;;10.50;99.90;;;;;;5051622;28;20056;-63
2022/10/05 08:17:48;;;;;;;14.60;7.93;;;10.70;99.90;;;;;;5050632;28;20036;-64
2022/10/05 08:20:19;;;;;;;14.45;7.53;;;10.80;99.90;;;;;;5050377;28;20045;-67
2022/10/05 08:23:03;;;;;;;13.77;7.35;;;10.90;99.90;;;;;;5050584;28;20370;-65
2022/10/05 08:25:49;;;;;;;13.77;7.60;;;11.10;99.90;;;;;;5044423;28;20045;-64
2022/10/05 08:28:42;;;;;;;14.20;7.68;;;11.30;99.90;;;;;;5049203;28;20469;-69
2022/10/05 08:31:28;;;;;;;13.80;6.88;;;11.40;99.90;;;;;;5051162;28;20028;-63
2022/10/05 08:34:20;;;;;;;13.55;7.30;;;11.50;99.90;;;;;;5051190;28;20025;-65
2022/10/05 08:36:55;;;;;;;12.35;7.40;;;11.80;99.90;;;;;;5047444;28;20124;-63
2022/10/05 08:39:24;;;;;;;12.57;6.88;;;12.00;99.90;;;;;;5050180;28;20039;-65
2022/10/05 08:42:24;;;;;;;11.60;6.50;;;12.20;99.90;;;;;;5051005;28;20056;-65
2022/10/05 08:45:12;;;;;;;12.48;7.30;;;12.50;99.90;;;;;;5049636;28;20033;-64
2022/10/05 08:48:15;;;;;;;10.70;6.70;;;12.60;99.90;;;;;;5050468;28;20048;-65
2022/10/05 08:51:05;;;;;;;10.80;6.68;;;12.90;99.90;;;;;;5049256;28;20132;-64
2022/10/05 08:53:46;;;;;;;15.20;7.28;;;13.00;99.90;;;;;;5049532;28;20033;-64
2022/10/05 08:56:41;;;;;;;12.95;6.70;;;13.10;99.90;;;;;;5050951;28;20036;-65
2022/10/05 08:59:58;;;;;;;11.88;6.22;;;13.30;99.90;;;;;;5050721;28;20044;-64
2022/10/05 09:02:51;;;;;;;23.08;6.50;;;13.40;99.90;;;;;;5026855;28;20030;-65
2022/10/05 09:05:43;;;;;;;11.95;5.78;;;13.70;99.90;;;;;;5048995;28;20044;-70
2022/10/05 09:08:30;;;;;;;8.77;5.45;;;13.90;99.90;;;;;;5050489;28;20058;-63
2022/10/05 09:11:35;;;;;;;10.32;5.00;;;14.10;99.90;;;;;;5050008;28;20068;-64
2022/10/05 09:14:06;;;;;;;12.60;5.38;;;14.20;99.90;;;;;;5038732;28;20401;-65
2022/10/05 09:16:50;;;;;;;9.75;4.80;;;14.40;99.90;;;;;;5049545;28;20029;-64
2022/10/05 09:19:33;;;;;;;11.40;5.53;;;14.50;99.90;;;;;;5049317;28;20035;-70
2022/10/05 09:22:37;;;;;;;9.52;5.45;;;14.70;99.90;;;;;;5050219;28;20055;-65
2022/10/05 09:25:21;;;;;;;9.13;4.95;;;15.00;99.90;;;;;;5050110;28;20043;-64
2022/10/05 09:27:55;;;;;;;9.27;4.50;;;15.30;99.90;;;;;;5049688;28;20068;-65
2022/10/05 09:30:55;;;;;;;12.18;5.30;;;15.60;99.90;;;;;;5047370;28;20064;-64
2022/10/05 09:33:33;;;;;;;11.82;5.25;;;15.80;99.90;;;;;;5048436;28;20090;-66
2022/10/05 09:36:23;;;;;;;8.00;4.38;;;16.00;99.90;;;;;;5050278;28;20492;-66
2022/10/05 09:39:04;;;;;;;10.45;4.70;;;16.20;99.90;;;;;;5049405;28;20052;-63
2022/10/05 09:41:38;;;;;;;;;;;16.40;99.90;;;;;;5048423;28;20035;-64
2022/10/05 09:44:58;;;;;;;5.63;3.67;;;16.60;99.90;;;;;;5049888;28;19912;-66
2022/10/05 09:47:44;;;;;;;10.63;4.00;;;16.70;99.90;;;;;;5026476;28;20052;-64
2022/10/05 09:50:28;;;;;;;5.70;3.70;;;16.90;99.90;;;;;;5049840;28;20033;-64
2022/10/05 09:53:04;;;;;;;5.10;3.35;;;17.00;99.90;;;;;;5049665;28;20078;-64
2022/10/05 09:55:51;;;;;;;8.88;3.92;;;17.10;99.90;;;;;;5048529;28;20110;-65
2022/10/05 09:58:44;;;;;;;6.78;4.10;;;17.20;99.90;;;;;;5048981;28;20033;-69
2022/10/05 10:01:16;;;;;;;13.07;3.40;;;17.40;99.90;;;;;;5049552;28;20064;-64
2022/10/05 10:04:08;;;;;;;5.78;3.70;;;17.60;99.90;;;;;;5048735;28;20032;-66
2022/10/05 10:07:07;;;;;;;7.75;3.80;;;18.00;99.90;;;;;;5048385;28;20029;-64
2022/10/05 10:10:10;;;;;;;8.15;3.70;;;18.10;99.90;;;;;;5048694;28;20035;-64
2022/10/05 10:13:03;;;;;;;6.30;3.55;;;18.40;99.90;;;;;;5048299;28;20864;-64
2022/10/05 10:16:05;;;;;;;5.90;3.50;;;18.50;99.90;;;;;;5027111;28;20052;-64
2022/10/05 10:19:08;;;;;;;9.80;3.30;;;18.50;99.90;;;;;;5035854;28;20028;-65
2022/10/05 10:22:07;;;;;;;8.00;3.55;;;18.70;99.90;;;;;;5048517;28;20529;-65
2022/10/05 10:24:42;;;;;;;9.25;3.35;;;18.90;99.90;;;;;;5048364;28;20493;-65
2022/10/05 10:27:36;;;;;;;5.07;3.25;;;19.10;99.90;;;;;;5049290;28;20103;-66
2022/10/05 10:30:26;;;;;;;4.28;3.00;;;19.10;99.90;;;;;;5049296;28;20035;-66
2022/10/05 10:33:24;;;;;;;7.50;3.40;;;19.20;99.90;;;;;;5049303;28;20369;-65
2022/10/05 10:35:58;;;;;;;5.90;2.95;;;19.30;99.90;;;;;;5025856;28;20052;-64
2022/10/05 10:38:52;;;;;;;5.80;3.30;;;19.30;99.90;;;;;;5048073;28;20071;-64
2022/10/05 10:41:38;;;;;;;4.93;2.53;;;19.40;99.90;;;;;;5049368;28;20045;-66
2022/10/05 10:44:12;;;;;;;5.97;2.45;;;19.50;99.90;;;;;;5049222;28;20416;-65
2022/10/05 10:46:44;;;;;;;5.45;2.53;;;19.50;99.90;;;;;;5048454;28;20510;-65
2022/10/05 10:49:22;;;;;;;4.38;2.20;;;19.70;99.90;;;;;;5048946;28;20044;-64
2022/10/05 10:51:50;;;;;;;7.45;2.30;;;19.70;99.90;;;;;;5048539;28;20166;-65
2022/10/05 10:54:37;;;;;;;6.05;2.60;;;19.80;99.90;;;;;;5051303;28;20037;-66
2022/10/05 10:57:12;;;;;;;3.05;2.17;;;20.00;99.90;;;;;;5052907;28;20036;-67
2022/10/05 11:00:06;;;;;;;4.45;2.83;;;20.20;99.90;;;;;;5051963;28;20389;-66
2022/10/05 11:02:32;;;;;;;4.47;2.65;;;20.40;99.90;;;;;;5051709;28;20029;-67
2022/10/05 11:05:35;;;;;;;3.13;2.22;;;20.20;99.90;;;;;;5052705;28;20036;-64
2022/10/05 11:08:06;;;;;;;4.32;2.35;;;20.10;99.90;;;;;;5053172;28;20037;-67
2022/10/05 11:10:53;;;;;;;8.23;2.50;;;20.30;99.90;;;;;;5051749;28;20068;-65
2022/10/05 11:13:34;;;;;;;4.38;2.28;;;20.60;99.90;;;;;;5052346;28;20079;-67
2022/10/05 11:16:31;;;;;;;5.50;2.65;;;20.90;99.90;;;;;;5052621;28;20033;-65
2022/10/05 11:19:24;;;;;;;4.53;2.35;;;21.10;99.90;;;;;;5052395;28;20568;-68
2022/10/05 11:22:27;;;;;;;7.97;2.53;;;21.10;99.90;;;;;;5051902;28;20721;-65
2022/10/05 11:25:12;;;;;;;7.55;2.65;;;21.10;99.90;;;;;;5052551;28;20420;-66
2022/10/05 11:27:52;;;;;;;8.18;2.72;;;20.90;99.90;;;;;;5051759;28;20044;-66
2022/10/05 11:30:43;;;;;;;4.70;2.50;;;20.90;99.90;;;;;;5052442;28;20025;-67
2022/10/05 11:33:44;;;;;;;4.13;2.40;;;20.90;99.90;;;;;;5052342;28;20036;-68
2022/10/05 11:36:18;;;;;;;4.32;2.45;;;21.00;99.90;;;;;;5052259;28;20032;-67
2022/10/05 11:39:27;;;;;;;4.88;2.25;;;21.00;99.90;;;;;;5050946;28;20029;-66
2022/10/05 11:42:09;;;;;;;6.55;2.50;;;21.10;99.90;;;;;;5051619;28;20235;-67
2022/10/05 11:44:58;;;;;;;4.40;2.60;;;21.20;99.90;;;;;;5050072;28;20031;-65
2022/10/05 11:47:28;;;;;;;3.92;2.10;;;21.30;99.90;;;;;;5051708;28;20098;-67
2022/10/05 11:50:19;;;;;;;6.03;2.30;;;21.60;99.90;;;;;;5052163;28;20033;-65
2022/10/05 11:53:16;;;;;;;7.25;2.60;;;21.70;99.90;;;;;;5050562;28;20040;-65
2022/10/05 11:56:07;;;;;;;3.30;2.20;;;21.60;99.90;;;;;;5047784;28;20056;-66
2022/10/05 11:58:32;;;;;;;;;;;21.70;99.90;;;;;;5051849;28;20025;-64
2022/10/05 12:01:16;;;;;;;4.07;1.80;;;21.80;99.90;;;;;;5051796;28;19904;-64
2022/10/05 12:04:05;;;;;;;4.43;2.08;;;22.20;99.90;;;;;;5049164;28;20024;-67
2022/10/05 12:06:37;;;;;;;2.80;1.88;;;22.40;99.90;;;;;;5050855;28;20043;-66
2022/10/05 12:09:23;;;;;;;4.05;1.77;;;22.70;99.90;;;;;;5051994;28;20110;-67
2022/10/05 12:11:58;;;;;;;2.75;1.75;;;22.60;99.90;;;;;;5051485;28;20155;-66
2022/10/05 12:14:32;;;;;;;2.85;2.05;;;22.70;99.90;;;;;;5049599;28;20032;-68
2022/10/05 12:16:58;;;;;;;3.72;1.70;;;22.80;99.90;;;;;;5051322;28;20102;-65
2022/10/05 12:19:32;;;;;;;4.70;1.90;;;22.80;99.90;;;;;;5051213;28;20454;-67
2022/10/05 12:22:20;;;;;;;3.60;1.63;;;22.80;99.90;;;;;;5051456;28;20041;-64
2022/10/05 12:25:01;;;;;;;5.10;1.80;;;23.00;99.90;;;;;;5050246;28;20025;-66
2022/10/05 12:27:34;;;;;;;4.07;1.95;;;22.80;99.90;;;;;;5050990;28;20501;-69
2022/10/05 12:30:34;;;;;;;10.10;2.00;;;23.00;99.90;;;;;;5051689;28;20067;-65
2022/10/05 12:33:20;;;;;;;3.42;2.00;;;23.10;99.90;;;;;;5051416;28;20082;-66
2022/10/05 12:36:02;;;;;;;5.00;1.88;;;23.10;99.90;;;;;;5049898;28;20096;-67
2022/10/05 12:39:03;;;;;;;3.08;2.00;;;23.30;99.90;;;;;;5050986;28;20040;-68
2022/10/05 12:42:14;;;;;;;2.53;1.60;;;23.50;99.90;;;;;;5050403;28;20082;-69
2022/10/05 12:45:04;;;;;;;9.52;2.00;;;23.70;99.90;;;;;;5050120;28;20021;-65
2022/10/05 12:47:43;;;;;;;3.03;1.80;;;23.60;99.90;;;;;;5049650;28;20044;-68
2022/10/05 12:50:19;;;;;;;5.20;1.88;;;23.80;99.90;;;;;;5050987;28;20068;-65
2022/10/05 12:53:20;;;;;;;3.58;1.98;;;24.00;99.90;;;;;;5049998;28;20029;-66
2022/10/05 12:56:07;;;;;;;4.65;1.75;;;24.20;99.90;;;;;;5049977;28;20032;-65
2022/10/05 12:59:00;;;;;;;8.38;2.20;;;23.80;99.90;;;;;;5049994;28;20477;-67
2022/10/05 13:01:28;;;;;;;3.67;2.05;;;23.90;99.90;;;;;;5050735;28;20052;-67
2022/10/05 13:04:09;;;;;;;4.28;1.58;;;24.20;99.90;;;;;;5050268;28;20028;-64
2022/10/05 13:07:09;;;;;;;3.13;1.83;;;24.50;99.90;;;;;;5049270;28;20037;-67
2022/10/05 13:09:39;;;;;;;6.35;2.08;;;24.70;99.90;;;;;;5049470;28;20029;-68
2022/10/05 13:12:28;;;;;;;3.67;1.95;;;24.70;99.90;;;;;;5050198;28;20079;-66
2022/10/05 13:15:04;;;;;;;2.80;1.85;;;24.70;99.80;;;;;;5045458;28;20047;-64
2022/10/05 13:17:46;;;;;;;2.42;1.80;;;25.00;99.90;;;;;;5049014;28;20021;-68
2022/10/05 13:20:26;;;;;;;9.88;2.80;;;25.20;99.90;;;;;;5049666;28;20379;-66
2022/10/05 13:23:24;;;;;;;8.27;3.35;;;25.60;99.60;;;;;;5049526;28;20037;-65
2022/10/05 13:26:11;;;;;;;11.15;3.20;;;25.70;99.30;;;;;;5045804;28;20037;-66
2022/10/05 13:28:42;;;;;;;2.30;1.73;;;25.90;98.90;;;;;;5047398;28;20118;-67
2022/10/05 13:31:14;;;;;;;3.33;2.20;;;25.60;96.70;;;;;;5049566;28;20025;-67
2022/10/05 13:33:59;;;;;;;4.72;2.22;;;25.60;98.10;;;;;;5049605;28;20053;-64
2022/10/05 13:36:50;;;;;;;7.15;2.55;;;25.80;99.90;;;;;;5050110;28;20029;-65
2022/10/05 13:39:54;;;;;;;4.18;2.13;;;25.80;97.90;;;;;;5049978;28;20078;-67
2022/10/05 13:42:39;;;;;;;3.97;2.38;;;26.00;99.90;;;;;;5024439;28;20048;-66
2022/10/05 13:45:18;;;;;;;12.95;3.55;;;26.10;99.20;;;;;;5029942;28;20091;-65
2022/10/05 13:47:53;;;;;;;3.30;2.40;;;26.20;99.90;;;;;;5027880;28;20120;-64
2022/10/05 13:50:32;;;;;;;3.45;1.90;;;25.50;99.90;;;;;;5029941;28;20021;-66
2022/10/05 13:53:17;;;;;;;3.92;2.17;;;24.80;99.30;;;;;;5029762;28;20048;-67
2022/10/05 13:55:49;;;;;;;2.63;2.10;;;24.70;99.90;;;;;;5028698;28;20037;-66
2022/10/05 13:58:32;;;;;;;6.63;2.22;;;24.90;99.90;;;;;;5031887;28;20029;-66
2022/10/05 14:01:01;;;;;;;4.65;2.40;;;25.00;99.90;;;;;;5049441;28;20021;-65
2022/10/05 14:03:36;;;;;;;4.55;2.50;;;24.80;99.90;;;;;;5049425;28;20469;-64
2022/10/05 14:06:13;;;;;;;3.47;2.35;;;25.00;99.90;;;;;;5049526;28;20029;-66
2022/10/05 14:08:48;;;;;;;7.38;2.38;;;24.60;99.90;;;;;;5048785;28;20094;-65
2022/10/05 14:11:27;;;;;;;3.17;2.50;;;24.50;99.90;;;;;;5049488;28;20029;-66
2022/10/05 14:14:13;;;;;;;4.82;2.40;;;24.40;99.90;;;;;;5048415;28;20041;-67
2022/10/05 14:17:02;;;;;;;8.50;2.40;;;24.50;99.90;;;;;;5029092;28;20038;-65